createdAt,value
2022-09-13T00:01:54.761Z,16.10
2022-09-13T00:04:21.313Z,16.10
2022-09-13T00:06:50.087Z,16.00
2022-09-13T00:09:16.601Z,16.00
2022-09-13T00:11:45.520Z,16.00
2022-09-13T00:14:12.062Z,15.90
2022-09-13T00:16:38.623Z,15.90
2022-09-13T00:19:05.180Z,15.90
2022-09-13T00:21:32.242Z,15.80
2022-09-13T00:23:58.779Z,15.80
2022-09-13T00:26:26.776Z,15.80
2022-09-13T00:28:54.206Z,15.80
2022-09-13T00:31:21.569Z,15.70
2022-09-13T00:33:48.199Z,15.70
2022-09-13T00:36:17.147Z,15.70
2022-09-13T00:38:46.217Z,15.70
2022-09-13T00:41:14.540Z,15.60
2022-09-13T00:43:49.644Z,15.60
2022-09-13T00:46:19.158Z,15.60
2022-09-13T00:48:49.272Z,15.60
2022-09-13T00:51:16.351Z,15.50
2022-09-13T00:53:46.998Z,15.60
2022-09-13T00:56:18.616Z,15.50
2022-09-13T00:59:03.850Z,15.50
2022-09-13T01:01:33.695Z,15.60
2022-09-13T01:04:01.222Z,15.60
2022-09-13T01:06:33.041Z,15.60
2022-09-13T01:09:04.220Z,15.50
2022-09-13T01:11:33.478Z,15.50
2022-09-13T01:14:00.100Z,15.50
2022-09-13T01:16:26.957Z,15.40
2022-09-13T01:18:53.533Z,15.40
2022-09-13T01:21:38.578Z,15.30
2022-09-13T01:24:23.955Z,15.30
2022-09-13T01:27:10.722Z,15.30
2022-09-13T01:29:55.859Z,15.30
2022-09-13T01:32:22.338Z,15.20
2022-09-13T01:34:54.667Z,15.10
2022-09-13T01:37:26.990Z,15.10
2022-09-13T01:39:55.494Z,15.10
2022-09-13T01:42:29.935Z,15.10
2022-09-13T01:45:14.997Z,15.10
2022-09-13T01:47:47.826Z,15.10
2022-09-13T01:50:14.283Z,15.10
2022-09-13T01:52:40.911Z,15.10
2022-09-13T01:55:07.494Z,15.00
2022-09-13T01:57:43.477Z,15.00
2022-09-13T02:00:12.698Z,15.00
2022-09-13T02:02:57.974Z,15.00
2022-09-13T02:05:29.228Z,14.90
2022-09-13T02:07:58.250Z,14.90
2022-09-13T02:10:31.954Z,14.90
2022-09-13T02:12:59.117Z,14.90
2022-09-13T02:15:36.238Z,14.90
2022-09-13T02:18:09.938Z,14.90
2022-09-13T02:20:41.383Z,14.90
2022-09-13T02:23:10.551Z,14.80
2022-09-13T02:25:40.230Z,14.80
2022-09-13T02:28:09.308Z,14.80
2022-09-13T02:30:40.224Z,14.80
2022-09-13T02:33:12.746Z,14.80
2022-09-13T02:35:59.633Z,14.70
2022-09-13T02:38:28.126Z,14.80
2022-09-13T02:41:00.266Z,14.80
2022-09-13T02:43:37.876Z,14.70
2022-09-13T02:46:23.204Z,14.70
2022-09-13T02:48:58.529Z,14.80
2022-09-13T02:52:03.551Z,14.70
2022-09-13T02:54:32.605Z,14.70
2022-09-13T02:57:01.136Z,14.70
2022-09-13T02:59:27.771Z,14.60
2022-09-13T03:02:00.044Z,14.60
2022-09-13T03:04:27.434Z,14.60
2022-09-13T03:06:56.179Z,14.60
2022-09-13T03:09:22.913Z,14.60
2022-09-13T03:11:49.393Z,14.60
2022-09-13T03:14:20.204Z,14.60
2022-09-13T03:16:46.772Z,14.60
2022-09-13T03:19:13.351Z,14.60
2022-09-13T03:21:39.826Z,14.60
2022-09-13T03:24:15.710Z,14.50
2022-09-13T03:27:01.013Z,14.50
2022-09-13T03:29:41.050Z,14.50
2022-09-13T03:32:10.572Z,14.50
2022-09-13T03:34:56.006Z,14.50
2022-09-13T03:37:25.489Z,14.50
2022-09-13T03:40:12.544Z,14.50
2022-09-13T03:42:39.067Z,14.50
2022-09-13T03:45:09.585Z,14.50
2022-09-13T03:47:37.275Z,14.60
2022-09-13T03:50:07.457Z,14.50
2022-09-13T03:52:36.608Z,14.60
2022-09-13T03:55:03.482Z,14.60
2022-09-13T03:57:30.007Z,14.60
2022-09-13T03:59:57.103Z,14.60
2022-09-13T04:02:24.489Z,14.60
2022-09-13T04:04:53.197Z,14.60
2022-09-13T04:07:21.212Z,14.60
2022-09-13T04:09:47.917Z,14.60
2022-09-13T04:12:15.079Z,14.60
2022-09-13T04:14:43.730Z,14.60
2022-09-13T04:17:10.964Z,14.60
2022-09-13T04:19:37.562Z,14.60
2022-09-13T04:22:04.406Z,14.60
2022-09-13T04:24:31.359Z,14.60
2022-09-13T04:26:57.990Z,14.60
2022-09-13T04:29:25.847Z,14.60
2022-09-13T04:31:53.274Z,14.70
2022-09-13T04:34:22.168Z,14.70
2022-09-13T04:36:49.153Z,14.70
2022-09-13T04:39:15.761Z,14.70
2022-09-13T04:41:45.963Z,14.70
2022-09-13T04:44:12.755Z,14.60
2022-09-13T04:46:39.257Z,14.70
2022-09-13T04:49:05.812Z,14.70
2022-09-13T04:51:32.366Z,14.70
2022-09-13T04:54:00.175Z,14.70
2022-09-13T04:56:26.976Z,14.70
2022-09-13T04:58:55.955Z,14.70
2022-09-13T05:01:27.091Z,14.70
2022-09-13T05:03:54.775Z,14.70
2022-09-13T05:06:23.510Z,14.70
2022-09-13T05:08:52.175Z,14.70
2022-09-13T05:11:21.232Z,14.70
2022-09-13T05:13:52.955Z,14.70
2022-09-13T05:16:19.611Z,14.70
2022-09-13T05:18:49.343Z,14.70
2022-09-13T05:21:15.946Z,14.80
2022-09-13T05:23:42.566Z,14.80
2022-09-13T05:26:09.107Z,14.80
2022-09-13T05:28:36.471Z,14.80
2022-09-13T05:31:04.637Z,14.80
2022-09-13T05:33:32.664Z,14.80
2022-09-13T05:35:59.451Z,14.80
2022-09-13T05:38:26.244Z,14.80
2022-09-13T05:41:00.768Z,14.80
2022-09-13T05:43:31.186Z,14.80
2022-09-13T05:46:10.241Z,14.90
2022-09-13T05:48:37.301Z,14.90
2022-09-13T05:51:13.930Z,14.90
2022-09-13T05:53:41.710Z,14.90
2022-09-13T05:56:12.310Z,15.00
2022-09-13T05:58:42.904Z,15.00
2022-09-13T06:01:10.587Z,15.00
2022-09-13T06:03:37.384Z,15.10
2022-09-13T06:06:04.570Z,15.00
2022-09-13T06:08:31.921Z,15.10
2022-09-13T06:11:08.475Z,15.00
2022-09-13T06:13:37.797Z,15.00
2022-09-13T06:16:08.012Z,15.00
2022-09-13T06:18:35.722Z,15.00
2022-09-13T06:21:09.880Z,15.00
2022-09-13T06:23:39.118Z,15.00
2022-09-13T06:26:12.906Z,15.00
2022-09-13T06:28:39.830Z,15.00
2022-09-13T06:31:08.842Z,15.00
2022-09-13T06:33:36.387Z,15.00
2022-09-13T06:36:03.954Z,15.00
2022-09-13T06:38:30.712Z,15.00
2022-09-13T06:41:01.422Z,15.00
2022-09-13T06:43:30.365Z,15.00
2022-09-13T06:46:17.900Z,15.00
2022-09-13T06:48:46.427Z,15.00
2022-09-13T06:51:14.744Z,14.90
2022-09-13T06:53:41.730Z,14.90
2022-09-13T06:56:10.301Z,15.00
2022-09-13T06:58:37.727Z,15.00
2022-09-13T07:01:15.287Z,15.00
2022-09-13T07:03:43.012Z,15.00
2022-09-13T07:06:22.239Z,15.00
2022-09-13T07:08:50.257Z,15.00
2022-09-13T07:11:18.393Z,15.10
2022-09-13T07:13:52.043Z,15.10
2022-09-13T07:16:21.523Z,15.10
2022-09-13T07:18:52.474Z,15.20
2022-09-13T07:21:19.270Z,15.20
2022-09-13T07:23:45.994Z,15.30
2022-09-13T07:26:14.931Z,15.30
2022-09-13T07:28:42.654Z,15.30
2022-09-13T07:31:18.617Z,15.30
2022-09-13T07:33:45.310Z,15.30
2022-09-13T07:36:12.408Z,15.30
2022-09-13T07:38:40.192Z,15.30
2022-09-13T07:41:08.887Z,15.30
2022-09-13T07:43:38.567Z,15.30
2022-09-13T07:46:06.599Z,15.40
2022-09-13T07:48:34.135Z,15.40
2022-09-13T07:51:03.547Z,15.40
2022-09-13T07:53:35.585Z,15.40
2022-09-13T07:56:06.759Z,15.40
2022-09-13T07:58:33.901Z,15.50
2022-09-13T08:01:12.210Z,15.60
2022-09-13T08:03:38.965Z,15.60
2022-09-13T08:06:08.510Z,15.70
2022-09-13T08:08:35.992Z,15.80
2022-09-13T08:11:03.628Z,15.90
2022-09-13T08:13:32.167Z,15.90
2022-09-13T08:16:07.608Z,16.10
2022-09-13T08:18:34.228Z,16.20
2022-09-13T08:21:03.120Z,16.20
2022-09-13T08:23:29.828Z,16.20
2022-09-13T08:26:00.625Z,16.30
2022-09-13T08:28:27.859Z,16.40
2022-09-13T08:30:54.766Z,16.50
2022-09-13T08:33:21.364Z,16.60
2022-09-13T08:35:51.812Z,16.70
2022-09-13T08:38:18.936Z,16.80
2022-09-13T08:40:52.102Z,16.90
2022-09-13T08:43:36.221Z,17.00
2022-09-13T08:46:06.305Z,17.10
2022-09-13T08:48:36.917Z,17.20
2022-09-13T08:51:07.935Z,17.40
2022-09-13T08:53:43.910Z,17.50
2022-09-13T08:56:18.201Z,17.60
2022-09-13T08:58:49.294Z,17.70
2022-09-13T09:01:35.463Z,17.70
2022-09-13T09:04:05.086Z,17.80
2022-09-13T09:06:33.635Z,17.90
2022-09-13T09:09:05.151Z,18.00
2022-09-13T09:11:44.432Z,18.10
2022-09-13T09:14:17.354Z,18.10
2022-09-13T09:16:55.397Z,18.20
2022-09-13T09:19:21.934Z,18.30
2022-09-13T09:21:49.588Z,18.30
2022-09-13T09:24:18.950Z,18.40
2022-09-13T09:26:45.960Z,18.60
2022-09-13T09:29:22.936Z,18.60
2022-09-13T09:31:58.297Z,18.60
2022-09-13T09:34:42.449Z,18.70
2022-09-13T09:37:17.513Z,18.80
2022-09-13T09:39:44.658Z,18.80
2022-09-13T09:42:17.097Z,18.90
2022-09-13T09:44:45.074Z,18.90
2022-09-13T09:47:14.113Z,18.90
2022-09-13T09:50:08.632Z,19.00
2022-09-13T09:52:51.290Z,19.00
2022-09-13T09:55:21.106Z,19.00
2022-09-13T09:58:08.441Z,19.20
2022-09-13T10:00:36.080Z,19.30
2022-09-13T10:03:17.014Z,19.40
2022-09-13T10:05:43.954Z,19.60
2022-09-13T10:08:28.325Z,19.60
2022-09-13T10:10:57.304Z,19.80
2022-09-13T10:13:25.651Z,19.90
2022-09-13T10:16:00.060Z,20.00
2022-09-13T10:18:43.452Z,20.10
2022-09-13T10:21:58.485Z,20.20
2022-09-13T10:24:24.986Z,20.20
2022-09-13T10:26:51.755Z,20.30
2022-09-13T10:29:18.676Z,20.40
2022-09-13T10:31:47.063Z,20.40
2022-09-13T10:34:17.507Z,20.50
2022-09-13T10:36:54.648Z,20.60
2022-09-13T10:39:22.519Z,20.70
2022-09-13T10:41:51.619Z,20.70
2022-09-13T10:44:24.619Z,20.80
2022-09-13T10:46:51.802Z,20.80
2022-09-13T10:49:39.166Z,20.90
2022-09-13T10:52:31.769Z,21.00
2022-09-13T10:55:18.551Z,21.00
2022-09-13T10:57:49.627Z,21.00
2022-09-13T11:00:20.698Z,21.00
2022-09-13T11:02:54.464Z,21.10
2022-09-13T11:05:26.650Z,21.10
2022-09-13T11:07:56.161Z,21.20
2022-09-13T11:10:34.972Z,21.30
2022-09-13T11:13:14.483Z,21.40
2022-09-13T11:15:50.519Z,21.50
2022-09-13T11:18:22.962Z,21.60
2022-09-13T11:21:08.119Z,21.60
2022-09-13T11:23:53.347Z,21.70
2022-09-13T11:26:19.849Z,21.80
2022-09-13T11:28:54.314Z,21.90
2022-09-13T11:31:27.249Z,22.00
2022-09-13T11:34:11.966Z,22.00
2022-09-13T11:36:40.639Z,22.20
2022-09-13T11:39:18.901Z,22.20
2022-09-13T11:42:03.018Z,22.20
2022-09-13T11:44:46.770Z,22.30
2022-09-13T11:47:13.307Z,22.30
2022-09-13T11:49:42.868Z,22.30
2022-09-13T11:52:16.340Z,22.30
2022-09-13T11:54:58.201Z,22.30
2022-09-13T11:57:32.058Z,22.30
2022-09-13T12:00:01.112Z,22.30
2022-09-13T12:02:30.561Z,22.30
2022-09-13T12:05:22.547Z,22.30
2022-09-13T12:07:49.624Z,22.30
2022-09-13T12:10:25.225Z,22.40
2022-09-13T12:12:53.679Z,22.50
2022-09-13T12:15:20.184Z,22.40
2022-09-13T12:18:06.972Z,22.40
2022-09-13T12:20:35.530Z,22.50
2022-09-13T12:23:06.975Z,22.50
2022-09-13T12:25:47.642Z,22.60
2022-09-13T12:28:25.644Z,22.60
2022-09-13T12:30:55.550Z,22.60
2022-09-13T12:33:22.326Z,22.70
2022-09-13T12:35:53.836Z,22.70
2022-09-13T12:38:30.727Z,22.80
2022-09-13T12:41:19.467Z,23.00
2022-09-13T12:43:48.178Z,23.10
2022-09-13T12:46:23.885Z,23.20
2022-09-13T12:49:02.992Z,23.30
2022-09-13T12:51:38.765Z,23.30
2022-09-13T12:54:15.381Z,23.50
2022-09-13T12:56:45.073Z,23.50
2022-09-13T12:59:35.434Z,23.60
2022-09-13T13:02:04.200Z,23.70
2022-09-13T13:04:33.095Z,23.80
2022-09-13T13:07:04.915Z,23.80
2022-09-13T13:09:34.569Z,23.80
2022-09-13T13:12:01.165Z,23.80
2022-09-13T13:14:44.308Z,23.80
2022-09-13T13:17:32.139Z,23.70
2022-09-13T13:19:58.688Z,23.70
2022-09-13T13:22:44.293Z,23.80
2022-09-13T13:28:31.173Z,23.80
2022-09-13T13:31:00.209Z,23.90
2022-09-13T13:33:29.430Z,23.90
2022-09-13T13:35:56.136Z,23.90
2022-09-13T13:38:28.783Z,23.80
2022-09-13T13:41:05.081Z,23.80
2022-09-13T13:43:33.654Z,23.90
2022-09-13T13:46:22.898Z,23.90
2022-09-13T13:48:52.405Z,23.80
2022-09-13T13:51:33.382Z,23.90
2022-09-13T13:54:02.373Z,23.90
2022-09-13T13:56:46.917Z,23.90
2022-09-13T13:59:16.919Z,23.80
2022-09-13T14:01:48.761Z,23.90
2022-09-13T14:04:32.737Z,23.90
2022-09-13T14:07:18.934Z,24.00
2022-09-13T14:09:59.154Z,24.00
2022-09-13T14:12:25.827Z,23.90
2022-09-13T14:15:22.222Z,23.90
2022-09-13T14:17:56.834Z,23.90
2022-09-13T14:20:25.144Z,23.90
2022-09-13T14:22:51.670Z,23.90
2022-09-13T14:25:22.328Z,23.90
2022-09-13T14:27:49.485Z,23.90
2022-09-13T14:30:18.915Z,23.90
2022-09-13T14:32:56.820Z,23.90
2022-09-13T14:35:46.500Z,23.90
2022-09-13T14:38:23.668Z,23.80
2022-09-13T14:40:54.172Z,23.80
2022-09-13T14:43:31.138Z,23.80
2022-09-13T14:46:21.330Z,23.80
2022-09-13T14:48:52.101Z,23.80
2022-09-13T14:51:36.918Z,23.80
2022-09-13T14:54:29.580Z,23.90
2022-09-13T14:57:00.789Z,23.90
2022-09-13T14:59:31.174Z,23.90
2022-09-13T15:02:02.879Z,23.90
2022-09-13T15:04:29.963Z,24.00
2022-09-13T15:07:11.137Z,24.00
2022-09-13T15:09:40.098Z,24.10
2022-09-13T15:12:20.705Z,24.10
2022-09-13T15:14:48.148Z,24.10
2022-09-13T15:17:15.057Z,24.00
2022-09-13T15:19:48.858Z,24.00
2022-09-13T15:22:15.380Z,24.00
2022-09-13T15:24:49.773Z,24.00
2022-09-13T15:27:19.170Z,23.90
2022-09-13T15:29:49.921Z,23.90
2022-09-13T15:32:31.846Z,23.90
2022-09-13T15:34:59.332Z,23.80
2022-09-13T15:37:37.981Z,23.80
2022-09-13T15:40:13.556Z,23.80
2022-09-13T15:42:40.204Z,23.80
2022-09-13T15:45:06.935Z,23.80
2022-09-13T15:47:33.542Z,23.70
2022-09-13T15:50:00.096Z,23.70
2022-09-13T15:52:26.632Z,23.60
2022-09-13T15:54:53.184Z,23.70
2022-09-13T15:57:25.246Z,23.60
2022-09-13T15:59:52.281Z,23.60
2022-09-13T16:02:23.171Z,23.60
2022-09-13T16:04:50.194Z,23.50
2022-09-13T16:07:17.209Z,23.50
2022-09-13T16:09:46.257Z,23.50
2022-09-13T16:12:14.900Z,23.50
2022-09-13T16:14:41.463Z,23.40
2022-09-13T16:17:12.191Z,23.40
2022-09-13T16:19:38.773Z,23.30
2022-09-13T16:22:07.743Z,23.30
2022-09-13T16:24:37.911Z,23.30
2022-09-13T16:27:06.842Z,23.30
2022-09-13T16:29:33.403Z,23.20
2022-09-13T16:32:01.591Z,23.20
2022-09-13T16:34:28.189Z,23.20
2022-09-13T16:36:54.786Z,23.20
2022-09-13T16:39:21.416Z,23.20
2022-09-13T16:41:48.594Z,23.10
2022-09-13T16:44:15.912Z,23.10
2022-09-13T16:46:44.935Z,23.10
2022-09-13T16:49:11.586Z,23.10
2022-09-13T16:51:38.196Z,23.00
2022-09-13T16:54:07.723Z,23.00
2022-09-13T16:56:34.355Z,23.00
2022-09-13T16:59:00.973Z,22.90
2022-09-13T17:01:28.542Z,22.80
2022-09-13T17:03:55.777Z,22.80
2022-09-13T17:06:23.574Z,22.80
2022-09-13T17:08:55.323Z,22.70
2022-09-13T17:11:23.070Z,22.70
2022-09-13T17:13:52.733Z,22.70
2022-09-13T17:16:24.689Z,22.70
2022-09-13T17:18:51.634Z,22.60
2022-09-13T17:21:18.448Z,22.60
2022-09-13T17:23:45.442Z,22.60
2022-09-13T17:26:12.176Z,22.50
2022-09-13T17:28:38.696Z,22.60
2022-09-13T17:31:05.596Z,22.50
2022-09-13T17:33:32.256Z,22.50
2022-09-13T17:36:01.893Z,22.50
2022-09-13T17:38:28.733Z,22.50
2022-09-13T17:40:59.072Z,22.50
2022-09-13T17:43:25.609Z,22.50
2022-09-13T17:45:52.140Z,22.40
2022-09-13T17:48:21.105Z,22.30
2022-09-13T17:50:50.074Z,22.20
2022-09-13T17:53:16.625Z,22.10
2022-09-13T17:55:47.381Z,22.10
2022-09-13T17:58:14.508Z,22.00
2022-09-13T18:00:46.093Z,22.00
2022-09-13T18:03:15.925Z,22.00
2022-09-13T18:05:42.509Z,22.00
2022-09-13T18:08:09.080Z,22.00
2022-09-13T18:11:10.597Z,22.00
2022-09-13T18:13:22.175Z,22.00
2022-09-13T18:15:59.131Z,22.00
2022-09-13T18:18:25.691Z,22.00
2022-09-13T18:20:52.285Z,21.90
2022-09-13T18:23:18.957Z,21.80
2022-09-13T18:25:59.398Z,21.80
2022-09-13T18:28:29.115Z,21.80
2022-09-13T18:30:59.431Z,21.70
2022-09-13T18:33:26.199Z,21.70
2022-09-13T18:36:14.406Z,21.60
2022-09-13T18:38:42.273Z,21.60
2022-09-13T18:41:18.353Z,21.50
2022-09-13T18:43:49.698Z,21.50
2022-09-13T18:46:23.669Z,21.40
2022-09-13T18:48:52.812Z,21.40
2022-09-13T18:51:21.894Z,21.30
2022-09-13T18:53:48.977Z,21.30
2022-09-13T18:56:16.795Z,21.30
2022-09-13T18:58:43.755Z,21.20
2022-09-13T19:01:15.237Z,21.20
2022-09-13T19:03:58.573Z,21.20
2022-09-13T19:06:26.206Z,21.10
2022-09-13T19:08:53.659Z,21.10
2022-09-13T19:11:45.340Z,21.10
2022-09-13T19:14:14.996Z,21.10
2022-09-13T19:16:41.817Z,21.10
2022-09-13T19:19:08.804Z,21.00
2022-09-13T19:21:35.480Z,21.00
2022-09-13T19:24:06.461Z,21.00
2022-09-13T19:26:36.176Z,20.90
2022-09-13T19:29:07.063Z,20.90
2022-09-13T19:31:35.172Z,20.90
2022-09-13T19:34:02.281Z,20.90
2022-09-13T19:36:33.905Z,20.90
2022-09-13T19:39:00.965Z,20.80
2022-09-13T19:41:29.505Z,20.80
2022-09-13T19:44:01.991Z,20.80
2022-09-13T19:46:31.504Z,20.70
2022-09-13T19:48:59.141Z,20.70
2022-09-13T19:51:30.138Z,20.70
2022-09-13T19:54:01.941Z,20.70
2022-09-13T19:56:29.855Z,20.70
2022-09-13T19:58:56.459Z,20.70
2022-09-13T20:01:24.185Z,20.70
2022-09-13T20:03:57.002Z,20.70
2022-09-13T20:06:24.275Z,20.70
2022-09-13T20:08:51.508Z,20.70
2022-09-13T20:11:18.790Z,20.70
2022-09-13T20:13:45.769Z,20.60
2022-09-13T20:16:16.526Z,20.60
2022-09-13T20:18:43.209Z,20.60
2022-09-13T20:21:09.823Z,20.60
2022-09-13T20:23:39.914Z,20.60
2022-09-13T20:26:20.493Z,20.60
2022-09-13T20:28:48.341Z,20.50
2022-09-13T20:31:15.273Z,20.50
2022-09-13T20:33:42.259Z,20.50
2022-09-13T20:36:10.549Z,20.40
2022-09-13T20:38:37.885Z,20.50
2022-09-13T20:41:05.637Z,20.40
2022-09-13T20:43:32.931Z,20.40
2022-09-13T20:46:02.528Z,20.30
2022-09-13T20:48:29.177Z,20.30
2022-09-13T20:50:56.502Z,20.30
2022-09-13T20:53:23.059Z,20.30
2022-09-13T20:55:49.596Z,20.30
2022-09-13T20:58:16.722Z,20.30
2022-09-13T21:00:43.254Z,20.30
2022-09-13T21:03:11.042Z,20.20
2022-09-13T21:05:37.800Z,20.20
2022-09-13T21:08:23.265Z,20.20
2022-09-13T21:10:57.069Z,20.20
2022-09-13T21:13:25.861Z,20.20
2022-09-13T21:15:52.414Z,20.20
2022-09-13T21:18:19.167Z,20.10
2022-09-13T21:20:53.820Z,20.10
2022-09-13T21:23:20.347Z,20.20
2022-09-13T21:25:46.894Z,20.10
2022-09-13T21:28:15.567Z,20.10
2022-09-13T21:30:42.133Z,20.10
2022-09-13T21:33:08.704Z,20.10
2022-09-13T21:35:40.994Z,20.10
2022-09-13T21:38:10.026Z,20.10
2022-09-13T21:40:36.540Z,20.00
2022-09-13T21:43:03.066Z,20.00
2022-09-13T21:45:29.978Z,20.00
2022-09-13T21:47:56.767Z,20.00
2022-09-13T21:50:23.334Z,20.00
2022-09-13T21:52:50.082Z,20.00
2022-09-13T21:55:17.398Z,19.90
2022-09-13T21:57:47.058Z,19.90
2022-09-13T22:00:14.574Z,19.90
2022-09-13T22:02:43.614Z,19.80
2022-09-13T22:05:10.215Z,19.70
2022-09-13T22:07:39.140Z,19.70
2022-09-13T22:10:05.777Z,19.70
2022-09-13T22:12:32.311Z,19.70
2022-09-13T22:14:58.846Z,19.70
2022-09-13T22:17:25.346Z,19.70
2022-09-13T22:19:52.040Z,19.70
2022-09-13T22:22:18.551Z,19.70
2022-09-13T22:24:46.420Z,19.70
2022-09-13T22:27:12.982Z,19.70
2022-09-13T22:29:41.817Z,19.70
2022-09-13T22:32:08.790Z,19.60
2022-09-13T22:34:35.465Z,19.60
2022-09-13T22:37:02.028Z,19.50
2022-09-13T22:39:28.655Z,19.50
2022-09-13T22:41:55.289Z,19.40
2022-09-13T22:44:21.865Z,19.40
2022-09-13T22:46:48.530Z,19.40
2022-09-13T22:49:16.267Z,19.40
2022-09-13T22:51:44.921Z,19.50
2022-09-13T22:54:13.680Z,19.50
2022-09-13T22:56:40.515Z,19.50
2022-09-13T22:59:08.387Z,19.50
2022-09-13T23:01:38.076Z,19.50
2022-09-13T23:04:04.842Z,19.50
2022-09-13T23:06:31.497Z,19.50
2022-09-13T23:09:02.546Z,19.50
2022-09-13T23:11:29.033Z,19.50
2022-09-13T23:14:00.274Z,19.50
2022-09-13T23:16:28.317Z,19.50
2022-09-13T23:18:57.602Z,19.50
2022-09-13T23:21:25.626Z,19.50
2022-09-13T23:23:52.238Z,19.50
2022-09-13T23:26:19.935Z,19.40
2022-09-13T23:28:47.084Z,19.40
2022-09-13T23:31:16.792Z,19.40
2022-09-13T23:33:44.955Z,19.40
2022-09-13T23:36:14.997Z,19.40
2022-09-13T23:38:45.465Z,19.40
2022-09-13T23:41:12.130Z,19.40
2022-09-13T23:43:41.151Z,19.40
2022-09-13T23:46:07.797Z,19.40
2022-09-13T23:48:36.501Z,19.40
2022-09-13T23:51:04.325Z,19.40
2022-09-13T23:53:32.979Z,19.40
2022-09-13T23:56:02.708Z,19.40
2022-09-13T23:58:29.609Z,19.40
